sensor_id;sensor_type;location;lat;lon;timestamp;P1;durP1;ratioP1;P2;durP2;ratioP2
13927;SDS011;7036;50.834;4.718;2023-02-17T00:00:17;5.57;;;3.95;;
13927;SDS011;7036;50.834;4.718;2023-02-17T00:02:44;5.05;;;4.30;;
13927;SDS011;7036;50.834;4.718;2023-02-17T00:05:11;4.78;;;4.38;;
13927;SDS011;7036;50.834;4.718;2023-02-17T00:07:39;5.35;;;4.18;;
13927;SDS011;7036;50.834;4.718;2023-02-17T00:10:07;5.60;;;3.97;;
13927;SDS011;7036;50.834;4.718;2023-02-17T00:12:35;4.27;;;3.70;;
13927;SDS011;7036;50.834;4.718;2023-02-17T00:15:02;4.73;;;4.27;;
13927;SDS011;7036;50.834;4.718;2023-02-17T00:17:29;5.53;;;4.82;;
13927;SDS011;7036;50.834;4.718;2023-02-17T00:19:56;6.85;;;4.38;;
13927;SDS011;7036;50.834;4.718;2023-02-17T00:22:23;4.05;;;3.63;;
13927;SDS011;7036;50.834;4.718;2023-02-17T00:24:51;4.13;;;3.72;;
13927;SDS011;7036;50.834;4.718;2023-02-17T00:27:18;4.55;;;3.28;;
13927;SDS011;7036;50.834;4.718;2023-02-17T00:29:45;4.35;;;3.90;;
13927;SDS011;7036;50.834;4.718;2023-02-17T00:32:12;4.07;;;3.67;;
13927;SDS011;7036;50.834;4.718;2023-02-17T00:34:40;5.22;;;3.92;;
13927;SDS011;7036;50.834;4.718;2023-02-17T00:37:08;5.25;;;3.65;;
13927;SDS011;7036;50.834;4.718;2023-02-17T00:39:36;3.83;;;3.50;;
13927;SDS011;7036;50.834;4.718;2023-02-17T00:42:04;4.88;;;3.40;;
13927;SDS011;7036;50.834;4.718;2023-02-17T00:44:32;3.63;;;3.28;;
13927;SDS011;7036;50.834;4.718;2023-02-17T00:46:59;3.83;;;3.35;;
13927;SDS011;7036;50.834;4.718;2023-02-17T00:49:26;3.55;;;3.25;;
13927;SDS011;7036;50.834;4.718;2023-02-17T00:51:54;4.03;;;3.60;;
13927;SDS011;7036;50.834;4.718;2023-02-17T00:54:21;3.33;;;3.03;;
13927;SDS011;7036;50.834;4.718;2023-02-17T00:56:49;3.67;;;2.95;;
13927;SDS011;7036;50.834;4.718;2023-02-17T00:59:17;4.25;;;3.20;;
13927;SDS011;7036;50.834;4.718;2023-02-17T01:01:45;3.67;;;3.15;;
13927;SDS011;7036;50.834;4.718;2023-02-17T01:04:13;3.35;;;3.05;;
13927;SDS011;7036;50.834;4.718;2023-02-17T01:06:41;3.90;;;3.50;;
13927;SDS011;7036;50.834;4.718;2023-02-17T01:09:11;3.30;;;3.00;;
13927;SDS011;7036;50.834;4.718;2023-02-17T01:11:37;5.68;;;3.35;;
13927;SDS011;7036;50.834;4.718;2023-02-17T01:14:05;4.10;;;3.45;;
13927;SDS011;7036;50.834;4.718;2023-02-17T01:16:34;3.83;;;3.28;;
13927;SDS011;7036;50.834;4.718;2023-02-17T01:19:03;3.30;;;2.97;;
13927;SDS011;7036;50.834;4.718;2023-02-17T01:21:30;3.22;;;2.92;;
13927;SDS011;7036;50.834;4.718;2023-02-17T01:23:59;3.17;;;2.85;;
13927;SDS011;7036;50.834;4.718;2023-02-17T01:26:26;4.45;;;2.85;;
13927;SDS011;7036;50.834;4.718;2023-02-17T01:28:54;3.35;;;3.05;;
13927;SDS011;7036;50.834;4.718;2023-02-17T01:31:21;3.20;;;2.90;;
13927;SDS011;7036;50.834;4.718;2023-02-17T01:33:49;2.90;;;2.67;;
13927;SDS011;7036;50.834;4.718;2023-02-17T01:36:17;4.03;;;3.17;;
13927;SDS011;7036;50.834;4.718;2023-02-17T01:38:45;4.55;;;2.67;;
13927;SDS011;7036;50.834;4.718;2023-02-17T01:41:14;2.97;;;2.67;;
13927;SDS011;7036;50.834;4.718;2023-02-17T01:43:41;3.03;;;2.83;;
13927;SDS011;7036;50.834;4.718;2023-02-17T01:46:09;2.50;;;2.30;;
13927;SDS011;7036;50.834;4.718;2023-02-17T01:48:40;3.60;;;2.85;;
13927;SDS011;7036;50.834;4.718;2023-02-17T01:51:10;3.17;;;2.83;;
13927;SDS011;7036;50.834;4.718;2023-02-17T01:53:39;3.50;;;2.50;;
13927;SDS011;7036;50.834;4.718;2023-02-17T01:56:05;2.60;;;2.40;;
13927;SDS011;7036;50.834;4.718;2023-02-17T01:58:33;3.47;;;2.70;;
13927;SDS011;7036;50.834;4.718;2023-02-17T02:01:01;2.80;;;2.60;;
13927;SDS011;7036;50.834;4.718;2023-02-17T02:03:29;4.55;;;2.47;;
13927;SDS011;7036;50.834;4.718;2023-02-17T02:05:58;2.38;;;2.17;;
13927;SDS011;7036;50.834;4.718;2023-02-17T02:08:24;3.00;;;2.40;;
13927;SDS011;7036;50.834;4.718;2023-02-17T02:10:51;2.60;;;2.40;;
13927;SDS011;7036;50.834;4.718;2023-02-17T02:13:19;2.13;;;2.00;;
13927;SDS011;7036;50.834;4.718;2023-02-17T02:15:52;2.63;;;2.28;;
13927;SDS011;7036;50.834;4.718;2023-02-17T02:18:26;2.53;;;2.30;;
13927;SDS011;7036;50.834;4.718;2023-02-17T02:20:58;2.30;;;2.10;;
13927;SDS011;7036;50.834;4.718;2023-02-17T02:34:02;2.53;;;2.33;;
13927;SDS011;7036;50.834;4.718;2023-02-17T02:36:33;1.63;;;1.53;;
13927;SDS011;7036;50.834;4.718;2023-02-17T02:39:22;2.53;;;2.33;;
13927;SDS011;7036;50.834;4.718;2023-02-17T02:42:07;2.70;;;2.07;;
13927;SDS011;7036;50.834;4.718;2023-02-17T02:44:18;2.20;;;2.00;;
13927;SDS011;7036;50.834;4.718;2023-02-17T02:49:24;2.10;;;1.90;;
13927;SDS011;7036;50.834;4.718;2023-02-17T02:52:02;2.30;;;2.08;;
13927;SDS011;7036;50.834;4.718;2023-02-17T02:57:16;1.87;;;1.67;;
13927;SDS011;7036;50.834;4.718;2023-02-17T02:59:47;2.27;;;1.90;;
13927;SDS011;7036;50.834;4.718;2023-02-17T03:02:15;2.10;;;1.93;;
13927;SDS011;7036;50.834;4.718;2023-02-17T03:07:34;1.60;;;1.50;;
13927;SDS011;7036;50.834;4.718;2023-02-17T03:10:03;1.83;;;1.73;;
13927;SDS011;7036;50.834;4.718;2023-02-17T03:12:30;2.97;;;1.80;;
13927;SDS011;7036;50.834;4.718;2023-02-17T03:15:03;2.03;;;1.60;;
13927;SDS011;7036;50.834;4.718;2023-02-17T03:17:31;2.33;;;1.87;;
13927;SDS011;7036;50.834;4.718;2023-02-17T03:20:01;1.93;;;1.83;;
13927;SDS011;7036;50.834;4.718;2023-02-17T03:22:28;2.05;;;1.80;;
13927;SDS011;7036;50.834;4.718;2023-02-17T03:24:55;1.97;;;1.80;;
13927;SDS011;7036;50.834;4.718;2023-02-17T03:27:23;1.70;;;1.60;;
13927;SDS011;7036;50.834;4.718;2023-02-17T03:29:51;1.70;;;1.60;;
13927;SDS011;7036;50.834;4.718;2023-02-17T03:32:19;2.35;;;1.80;;
13927;SDS011;7036;50.834;4.718;2023-02-17T03:34:47;2.58;;;1.77;;
13927;SDS011;7036;50.834;4.718;2023-02-17T03:37:15;2.97;;;1.90;;
13927;SDS011;7036;50.834;4.718;2023-02-17T03:39:43;1.70;;;1.60;;
13927;SDS011;7036;50.834;4.718;2023-02-17T03:42:11;2.47;;;1.75;;
13927;SDS011;7036;50.834;4.718;2023-02-17T03:44:39;1.70;;;1.60;;
13927;SDS011;7036;50.834;4.718;2023-02-17T03:47:07;1.67;;;1.58;;
13927;SDS011;7036;50.834;4.718;2023-02-17T03:49:34;1.63;;;1.52;;
13927;SDS011;7036;50.834;4.718;2023-02-17T03:52:02;2.03;;;1.60;;
13927;SDS011;7036;50.834;4.718;2023-02-17T03:54:30;1.85;;;1.75;;
13927;SDS011;7036;50.834;4.718;2023-02-17T03:56:58;2.60;;;1.48;;
13927;SDS011;7036;50.834;4.718;2023-02-17T03:59:26;1.67;;;1.58;;
13927;SDS011;7036;50.834;4.718;2023-02-17T04:01:54;3.00;;;1.65;;
13927;SDS011;7036;50.834;4.718;2023-02-17T04:04:21;1.60;;;1.50;;
13927;SDS011;7036;50.834;4.718;2023-02-17T04:06:49;1.90;;;1.70;;
13927;SDS011;7036;50.834;4.718;2023-02-17T04:09:19;1.73;;;1.43;;
13927;SDS011;7036;50.834;4.718;2023-02-17T04:11:46;1.73;;;1.52;;
13927;SDS011;7036;50.834;4.718;2023-02-17T04:14:14;1.92;;;1.50;;
13927;SDS011;7036;50.834;4.718;2023-02-17T04:16:42;1.55;;;1.40;;
13927;SDS011;7036;50.834;4.718;2023-02-17T04:19:10;1.38;;;1.27;;
13927;SDS011;7036;50.834;4.718;2023-02-17T04:21:38;1.30;;;1.20;;
13927;SDS011;7036;50.834;4.718;2023-02-17T04:24:06;1.73;;;1.30;;
13927;SDS011;7036;50.834;4.718;2023-02-17T04:26:33;1.50;;;1.40;;
13927;SDS011;7036;50.834;4.718;2023-02-17T04:29:02;1.48;;;1.27;;
13927;SDS011;7036;50.834;4.718;2023-02-17T04:31:28;2.70;;;1.80;;
13927;SDS011;7036;50.834;4.718;2023-02-17T04:33:55;1.42;;;1.30;;
13927;SDS011;7036;50.834;4.718;2023-02-17T04:36:23;1.52;;;1.42;;
13927;SDS011;7036;50.834;4.718;2023-02-17T04:38:51;1.65;;;1.27;;
13927;SDS011;7036;50.834;4.718;2023-02-17T04:41:19;1.58;;;1.33;;
13927;SDS011;7036;50.834;4.718;2023-02-17T04:43:47;1.55;;;1.45;;
13927;SDS011;7036;50.834;4.718;2023-02-17T04:46:15;1.67;;;1.58;;
13927;SDS011;7036;50.834;4.718;2023-02-17T04:48:43;1.55;;;1.45;;
13927;SDS011;7036;50.834;4.718;2023-02-17T04:51:11;3.15;;;1.48;;
13927;SDS011;7036;50.834;4.718;2023-02-17T04:53:39;1.88;;;1.65;;
13927;SDS011;7036;50.834;4.718;2023-02-17T04:56:06;2.15;;;1.50;;
13927;SDS011;7036;50.834;4.718;2023-02-17T04:58:34;1.80;;;1.55;;
13927;SDS011;7036;50.834;4.718;2023-02-17T05:01:02;1.88;;;1.52;;
13927;SDS011;7036;50.834;4.718;2023-02-17T05:03:30;1.60;;;1.50;;
13927;SDS011;7036;50.834;4.718;2023-02-17T05:05:58;1.85;;;1.40;;
13927;SDS011;7036;50.834;4.718;2023-02-17T05:08:26;1.67;;;1.33;;
13927;SDS011;7036;50.834;4.718;2023-02-17T05:10:53;1.75;;;1.42;;
13927;SDS011;7036;50.834;4.718;2023-02-17T05:13:21;3.97;;;1.95;;
13927;SDS011;7036;50.834;4.718;2023-02-17T05:15:49;1.48;;;1.38;;
13927;SDS011;7036;50.834;4.718;2023-02-17T05:18:16;1.48;;;1.38;;
13927;SDS011;7036;50.834;4.718;2023-02-17T05:20:44;1.35;;;1.25;;
13927;SDS011;7036;50.834;4.718;2023-02-17T05:23:13;1.58;;;1.40;;
13927;SDS011;7036;50.834;4.718;2023-02-17T05:25:40;2.67;;;1.38;;
13927;SDS011;7036;50.834;4.718;2023-02-17T05:28:07;1.60;;;1.40;;
13927;SDS011;7036;50.834;4.718;2023-02-17T05:30:34;1.70;;;1.33;;
13927;SDS011;7036;50.834;4.718;2023-02-17T05:33:02;1.60;;;1.50;;
13927;SDS011;7036;50.834;4.718;2023-02-17T05:35:32;1.65;;;1.42;;
13927;SDS011;7036;50.834;4.718;2023-02-17T05:37:58;1.50;;;1.40;;
13927;SDS011;7036;50.834;4.718;2023-02-17T05:40:25;1.50;;;1.23;;
13927;SDS011;7036;50.834;4.718;2023-02-17T05:42:53;1.92;;;1.60;;
13927;SDS011;7036;50.834;4.718;2023-02-17T05:45:21;1.40;;;1.27;;
13927;SDS011;7036;50.834;4.718;2023-02-17T05:47:49;1.65;;;1.50;;
13927;SDS011;7036;50.834;4.718;2023-02-17T05:50:17;1.55;;;1.45;;
13927;SDS011;7036;50.834;4.718;2023-02-17T05:52:45;1.60;;;1.50;;
13927;SDS011;7036;50.834;4.718;2023-02-17T05:55:13;1.30;;;1.20;;
13927;SDS011;7036;50.834;4.718;2023-02-17T05:57:40;1.77;;;1.20;;
13927;SDS011;7036;50.834;4.718;2023-02-17T06:00:08;1.20;;;1.10;;
13927;SDS011;7036;50.834;4.718;2023-02-17T06:02:35;1.67;;;1.47;;
13927;SDS011;7036;50.834;4.718;2023-02-17T06:05:02;1.20;;;1.10;;
13927;SDS011;7036;50.834;4.718;2023-02-17T06:07:29;1.48;;;1.38;;
13927;SDS011;7036;50.834;4.718;2023-02-17T06:09:57;1.38;;;1.27;;
13927;SDS011;7036;50.834;4.718;2023-02-17T06:12:24;1.98;;;1.33;;
13927;SDS011;7036;50.834;4.718;2023-02-17T06:14:52;1.40;;;1.30;;
13927;SDS011;7036;50.834;4.718;2023-02-17T06:17:20;1.58;;;1.30;;
13927;SDS011;7036;50.834;4.718;2023-02-17T06:19:47;1.85;;;1.48;;
13927;SDS011;7036;50.834;4.718;2023-02-17T06:22:14;1.55;;;1.25;;
13927;SDS011;7036;50.834;4.718;2023-02-17T06:24:43;1.40;;;1.30;;
13927;SDS011;7036;50.834;4.718;2023-02-17T06:27:11;1.20;;;1.00;;
13927;SDS011;7036;50.834;4.718;2023-02-17T06:29:38;1.08;;;1.00;;
13927;SDS011;7036;50.834;4.718;2023-02-17T06:32:06;1.30;;;1.20;;
13927;SDS011;7036;50.834;4.718;2023-02-17T06:34:34;1.30;;;1.20;;
13927;SDS011;7036;50.834;4.718;2023-02-17T06:37:01;1.20;;;1.10;;
13927;SDS011;7036;50.834;4.718;2023-02-17T06:39:29;1.08;;;0.80;;
13927;SDS011;7036;50.834;4.718;2023-02-17T06:41:57;2.80;;;1.25;;
13927;SDS011;7036;50.834;4.718;2023-02-17T06:44:25;1.88;;;1.13;;
13927;SDS011;7036;50.834;4.718;2023-02-17T06:46:53;1.55;;;1.10;;
13927;SDS011;7036;50.834;4.718;2023-02-17T06:49:20;1.23;;;1.13;;
13927;SDS011;7036;50.834;4.718;2023-02-17T06:51:48;1.40;;;1.30;;
13927;SDS011;7036;50.834;4.718;2023-02-17T06:54:15;1.50;;;1.20;;
13927;SDS011;7036;50.834;4.718;2023-02-17T06:56:43;1.30;;;1.13;;
13927;SDS011;7036;50.834;4.718;2023-02-17T06:59:10;1.50;;;1.40;;
13927;SDS011;7036;50.834;4.718;2023-02-17T07:01:37;1.38;;;1.23;;
13927;SDS011;7036;50.834;4.718;2023-02-17T07:04:04;1.77;;;1.40;;
13927;SDS011;7036;50.834;4.718;2023-02-17T07:06:32;3.45;;;1.50;;
13927;SDS011;7036;50.834;4.718;2023-02-17T07:08:59;1.20;;;1.10;;
13927;SDS011;7036;50.834;4.718;2023-02-17T07:11:27;1.77;;;1.58;;
13927;SDS011;7036;50.834;4.718;2023-02-17T07:13:55;2.15;;;1.58;;
13927;SDS011;7036;50.834;4.718;2023-02-17T07:16:23;3.97;;;2.20;;
13927;SDS011;7036;50.834;4.718;2023-02-17T07:18:51;9.77;;;3.08;;
13927;SDS011;7036;50.834;4.718;2023-02-17T07:21:19;2.92;;;1.95;;
13927;SDS011;7036;50.834;4.718;2023-02-17T07:23:47;4.80;;;2.78;;
13927;SDS011;7036;50.834;4.718;2023-02-17T07:26:15;4.22;;;2.63;;
13927;SDS011;7036;50.834;4.718;2023-02-17T07:28:43;4.18;;;2.75;;
13927;SDS011;7036;50.834;4.718;2023-02-17T07:31:15;3.50;;;2.90;;
13927;SDS011;7036;50.834;4.718;2023-02-17T07:33:41;5.17;;;2.60;;
13927;SDS011;7036;50.834;4.718;2023-02-17T07:36:09;4.57;;;2.80;;
13927;SDS011;7036;50.834;4.718;2023-02-17T07:38:35;3.72;;;2.60;;
13927;SDS011;7036;50.834;4.718;2023-02-17T07:41:07;4.20;;;2.70;;
13927;SDS011;7036;50.834;4.718;2023-02-17T07:43:33;3.53;;;3.00;;
13927;SDS011;7036;50.834;4.718;2023-02-17T07:46:00;14.70;;;3.55;;
13927;SDS011;7036;50.834;4.718;2023-02-17T07:48:27;5.60;;;2.85;;
13927;SDS011;7036;50.834;4.718;2023-02-17T07:50:54;6.57;;;2.75;;
13927;SDS011;7036;50.834;4.718;2023-02-17T07:53:22;12.63;;;3.78;;
13927;SDS011;7036;50.834;4.718;2023-02-17T07:55:50;12.35;;;4.20;;
13927;SDS011;7036;50.834;4.718;2023-02-17T07:58:16;8.67;;;4.27;;
13927;SDS011;7036;50.834;4.718;2023-02-17T08:00:44;9.65;;;4.10;;
13927;SDS011;7036;50.834;4.718;2023-02-17T08:03:12;6.40;;;3.93;;
13927;SDS011;7036;50.834;4.718;2023-02-17T08:05:39;10.30;;;3.57;;
13927;SDS011;7036;50.834;4.718;2023-02-17T08:08:07;4.93;;;3.40;;
13927;SDS011;7036;50.834;4.718;2023-02-17T08:10:52;4.73;;;3.10;;
13927;SDS011;7036;50.834;4.718;2023-02-17T08:13:37;6.93;;;3.87;;
13927;SDS011;7036;50.834;4.718;2023-02-17T08:16:04;13.07;;;4.13;;
13927;SDS011;7036;50.834;4.718;2023-02-17T08:18:31;15.40;;;4.70;;
13927;SDS011;7036;50.834;4.718;2023-02-17T08:20:59;5.40;;;4.18;;
13927;SDS011;7036;50.834;4.718;2023-02-17T08:23:27;6.50;;;4.10;;
13927;SDS011;7036;50.834;4.718;2023-02-17T08:25:56;10.43;;;5.07;;
13927;SDS011;7036;50.834;4.718;2023-02-17T08:28:24;7.78;;;4.40;;
13927;SDS011;7036;50.834;4.718;2023-02-17T08:30:51;9.07;;;5.10;;
13927;SDS011;7036;50.834;4.718;2023-02-17T08:33:19;7.93;;;5.07;;
13927;SDS011;7036;50.834;4.718;2023-02-17T08:35:47;16.42;;;5.15;;
13927;SDS011;7036;50.834;4.718;2023-02-17T08:38:15;6.53;;;4.80;;
13927;SDS011;7036;50.834;4.718;2023-02-17T08:40:42;5.68;;;4.88;;
13927;SDS011;7036;50.834;4.718;2023-02-17T08:43:10;7.30;;;4.75;;
13927;SDS011;7036;50.834;4.718;2023-02-17T08:45:38;9.23;;;4.63;;
13927;SDS011;7036;50.834;4.718;2023-02-17T08:48:06;6.28;;;4.07;;
13927;SDS011;7036;50.834;4.718;2023-02-17T08:50:33;7.60;;;4.28;;
13927;SDS011;7036;50.834;4.718;2023-02-17T08:53:01;8.70;;;4.50;;
13927;SDS011;7036;50.834;4.718;2023-02-17T08:55:28;8.00;;;4.25;;
13927;SDS011;7036;50.834;4.718;2023-02-17T08:57:56;5.60;;;4.70;;
13927;SDS011;7036;50.834;4.718;2023-02-17T09:00:23;5.78;;;4.22;;
13927;SDS011;7036;50.834;4.718;2023-02-17T09:02:51;9.20;;;4.25;;
13927;SDS011;7036;50.834;4.718;2023-02-17T09:05:19;6.28;;;4.20;;
13927;SDS011;7036;50.834;4.718;2023-02-17T09:07:46;11.77;;;4.23;;
13927;SDS011;7036;50.834;4.718;2023-02-17T09:10:13;10.70;;;5.22;;
13927;SDS011;7036;50.834;4.718;2023-02-17T09:12:41;7.15;;;3.85;;
13927;SDS011;7036;50.834;4.718;2023-02-17T09:15:09;10.30;;;4.32;;
13927;SDS011;7036;50.834;4.718;2023-02-17T09:17:37;17.70;;;6.60;;
13927;SDS011;7036;50.834;4.718;2023-02-17T09:20:04;12.75;;;4.82;;
13927;SDS011;7036;50.834;4.718;2023-02-17T09:22:31;35.38;;;8.25;;
13927;SDS011;7036;50.834;4.718;2023-02-17T09:24:59;14.25;;;5.57;;
13927;SDS011;7036;50.834;4.718;2023-02-17T09:27:26;12.77;;;4.90;;
13927;SDS011;7036;50.834;4.718;2023-02-17T09:29:55;13.27;;;5.57;;
13927;SDS011;7036;50.834;4.718;2023-02-17T09:32:21;13.37;;;4.73;;
13927;SDS011;7036;50.834;4.718;2023-02-17T09:34:49;8.15;;;3.80;;
13927;SDS011;7036;50.834;4.718;2023-02-17T09:37:16;7.38;;;3.63;;
13927;SDS011;7036;50.834;4.718;2023-02-17T09:39:43;7.20;;;3.17;;
13927;SDS011;7036;50.834;4.718;2023-02-17T09:42:21;12.65;;;4.00;;
13927;SDS011;7036;50.834;4.718;2023-02-17T09:44:43;4.40;;;4.00;;
13927;SDS011;7036;50.834;4.718;2023-02-17T09:47:15;8.32;;;3.65;;
13927;SDS011;7036;50.834;4.718;2023-02-17T09:49:42;8.03;;;4.17;;
13927;SDS011;7036;50.834;4.718;2023-02-17T09:54:50;5.17;;;3.27;;
13927;SDS011;7036;50.834;4.718;2023-02-17T09:57:15;6.25;;;3.70;;
13927;SDS011;7036;50.834;4.718;2023-02-17T09:59:44;3.97;;;2.90;;
13927;SDS011;7036;50.834;4.718;2023-02-17T10:02:18;8.05;;;3.28;;
13927;SDS011;7036;50.834;4.718;2023-02-17T10:04:37;4.68;;;2.63;;
13927;SDS011;7036;50.834;4.718;2023-02-17T10:07:08;6.25;;;2.42;;
13927;SDS011;7036;50.834;4.718;2023-02-17T10:09:54;6.40;;;2.43;;
13927;SDS011;7036;50.834;4.718;2023-02-17T10:12:23;5.40;;;2.87;;
13927;SDS011;7036;50.834;4.718;2023-02-17T10:14:50;11.02;;;3.45;;
13927;SDS011;7036;50.834;4.718;2023-02-17T10:22:33;3.63;;;2.93;;
13927;SDS011;7036;50.834;4.718;2023-02-17T10:25:00;8.85;;;3.13;;
13927;SDS011;7036;50.834;4.718;2023-02-17T10:27:35;8.60;;;2.65;;
13927;SDS011;7036;50.834;4.718;2023-02-17T10:40:52;11.23;;;2.87;;
13927;SDS011;7036;50.834;4.718;2023-02-17T10:43:21;4.57;;;2.40;;
13927;SDS011;7036;50.834;4.718;2023-02-17T10:45:49;4.97;;;1.97;;
13927;SDS011;7036;50.834;4.718;2023-02-17T10:50:43;6.70;;;2.53;;
13927;SDS011;7036;50.834;4.718;2023-02-17T10:53:17;8.68;;;2.42;;
13927;SDS011;7036;50.834;4.718;2023-02-17T10:55:53;6.67;;;2.17;;
13927;SDS011;7036;50.834;4.718;2023-02-17T10:58:21;4.60;;;2.60;;
13927;SDS011;7036;50.834;4.718;2023-02-17T11:00:46;3.67;;;2.50;;
13927;SDS011;7036;50.834;4.718;2023-02-17T11:03:20;2.22;;;1.88;;
13927;SDS011;7036;50.834;4.718;2023-02-17T11:05:58;6.13;;;2.33;;
13927;SDS011;7036;50.834;4.718;2023-02-17T11:08:29;6.60;;;1.90;;
13927;SDS011;7036;50.834;4.718;2023-02-17T11:13:37;3.00;;;2.13;;
13927;SDS011;7036;50.834;4.718;2023-02-17T11:16:04;4.87;;;2.17;;
13927;SDS011;7036;50.834;4.718;2023-02-17T11:18:34;3.40;;;2.30;;
13927;SDS011;7036;50.834;4.718;2023-02-17T11:21:07;3.93;;;2.10;;
13927;SDS011;7036;50.834;4.718;2023-02-17T11:23:32;6.40;;;2.07;;
13927;SDS011;7036;50.834;4.718;2023-02-17T11:26:02;5.90;;;2.28;;
13927;SDS011;7036;50.834;4.718;2023-02-17T11:28:28;4.68;;;2.00;;
13927;SDS011;7036;50.834;4.718;2023-02-17T11:30:56;2.83;;;1.80;;
13927;SDS011;7036;50.834;4.718;2023-02-17T11:33:37;4.95;;;1.90;;
13927;SDS011;7036;50.834;4.718;2023-02-17T11:36:03;7.43;;;2.40;;
13927;SDS011;7036;50.834;4.718;2023-02-17T11:38:41;4.53;;;1.63;;
13927;SDS011;7036;50.834;4.718;2023-02-17T11:41:06;2.70;;;1.77;;
13927;SDS011;7036;50.834;4.718;2023-02-17T11:43:34;4.20;;;1.70;;
13927;SDS011;7036;50.834;4.718;2023-02-17T11:46:07;3.88;;;1.35;;
13927;SDS011;7036;50.834;4.718;2023-02-17T11:51:30;4.23;;;1.50;;
13927;SDS011;7036;50.834;4.718;2023-02-17T11:54:15;1.73;;;1.40;;
13927;SDS011;7036;50.834;4.718;2023-02-17T11:56:44;4.27;;;1.27;;
13927;SDS011;7036;50.834;4.718;2023-02-17T11:59:23;3.95;;;1.63;;
13927;SDS011;7036;50.834;4.718;2023-02-17T12:10:12;4.67;;;1.77;;
13927;SDS011;7036;50.834;4.718;2023-02-17T12:12:54;1.53;;;1.10;;
13927;SDS011;7036;50.834;4.718;2023-02-17T12:15:26;2.20;;;1.10;;
13927;SDS011;7036;50.834;4.718;2023-02-17T12:18:11;4.43;;;1.33;;
13927;SDS011;7036;50.834;4.718;2023-02-17T12:20:49;5.13;;;1.33;;
13927;SDS011;7036;50.834;4.718;2023-02-17T12:29:16;2.77;;;1.03;;
13927;SDS011;7036;50.834;4.718;2023-02-17T12:31:49;1.73;;;1.00;;
13927;SDS011;7036;50.834;4.718;2023-02-17T12:36:45;1.30;;;1.13;;
13927;SDS011;7036;50.834;4.718;2023-02-17T12:39:17;1.95;;;1.13;;
13927;SDS011;7036;50.834;4.718;2023-02-17T12:41:52;4.33;;;1.20;;
13927;SDS011;7036;50.834;4.718;2023-02-17T12:44:20;1.40;;;1.20;;
13927;SDS011;7036;50.834;4.718;2023-02-17T12:46:49;3.00;;;1.43;;
13927;SDS011;7036;50.834;4.718;2023-02-17T12:49:19;2.77;;;0.93;;
13927;SDS011;7036;50.834;4.718;2023-02-17T12:54:47;2.33;;;1.03;;
13927;SDS011;7036;50.834;4.718;2023-02-17T12:57:14;1.37;;;1.00;;
13927;SDS011;7036;50.834;4.718;2023-02-17T12:59:53;1.90;;;1.30;;
13927;SDS011;7036;50.834;4.718;2023-02-17T13:02:21;1.73;;;1.00;;
13927;SDS011;7036;50.834;4.718;2023-02-17T13:04:56;2.70;;;1.40;;
13927;SDS011;7036;50.834;4.718;2023-02-17T13:09:59;1.40;;;1.10;;
13927;SDS011;7036;50.834;4.718;2023-02-17T13:14:54;1.98;;;1.23;;
13927;SDS011;7036;50.834;4.718;2023-02-17T13:17:33;2.33;;;1.13;;
13927;SDS011;7036;50.834;4.718;2023-02-17T13:22:39;1.97;;;1.20;;
13927;SDS011;7036;50.834;4.718;2023-02-17T13:25:05;3.70;;;0.93;;
13927;SDS011;7036;50.834;4.718;2023-02-17T13:27:34;3.05;;;1.00;;
13927;SDS011;7036;50.834;4.718;2023-02-17T13:33:02;3.03;;;1.20;;
13927;SDS011;7036;50.834;4.718;2023-02-17T13:35:30;5.43;;;1.50;;
13927;SDS011;7036;50.834;4.718;2023-02-17T13:37:55;3.58;;;1.40;;
13927;SDS011;7036;50.834;4.718;2023-02-17T13:42:52;1.88;;;0.95;;
13927;SDS011;7036;50.834;4.718;2023-02-17T13:45:28;2.28;;;0.90;;
13927;SDS011;7036;50.834;4.718;2023-02-17T13:50:46;7.43;;;1.47;;
13927;SDS011;7036;50.834;4.718;2023-02-17T13:53:23;4.53;;;1.20;;
13927;SDS011;7036;50.834;4.718;2023-02-17T13:55:52;3.20;;;0.90;;
13927;SDS011;7036;50.834;4.718;2023-02-17T13:58:24;1.98;;;1.10;;
13927;SDS011;7036;50.834;4.718;2023-02-17T14:00:47;2.93;;;1.33;;
13927;SDS011;7036;50.834;4.718;2023-02-17T14:03:23;2.00;;;1.40;;
13927;SDS011;7036;50.834;4.718;2023-02-17T14:05:57;1.93;;;1.03;;
13927;SDS011;7036;50.834;4.718;2023-02-17T14:08:34;2.87;;;1.30;;
13927;SDS011;7036;50.834;4.718;2023-02-17T14:13:35;2.40;;;1.23;;
13927;SDS011;7036;50.834;4.718;2023-02-17T14:16:03;2.83;;;1.05;;
13927;SDS011;7036;50.834;4.718;2023-02-17T14:18:38;2.33;;;1.00;;
13927;SDS011;7036;50.834;4.718;2023-02-17T14:21:08;2.63;;;1.20;;
13927;SDS011;7036;50.834;4.718;2023-02-17T14:23:41;3.30;;;1.33;;
13927;SDS011;7036;50.834;4.718;2023-02-17T14:26:10;1.50;;;1.17;;
13927;SDS011;7036;50.834;4.718;2023-02-17T14:28:36;5.97;;;1.33;;
13927;SDS011;7036;50.834;4.718;2023-02-17T14:31:07;3.30;;;1.20;;
13927;SDS011;7036;50.834;4.718;2023-02-17T14:33:34;2.63;;;1.03;;
13927;SDS011;7036;50.834;4.718;2023-02-17T14:36:02;8.17;;;1.40;;
13927;SDS011;7036;50.834;4.718;2023-02-17T14:38:31;2.93;;;1.17;;
13927;SDS011;7036;50.834;4.718;2023-02-17T14:41:04;2.30;;;1.30;;
13927;SDS011;7036;50.834;4.718;2023-02-17T14:43:30;2.97;;;1.13;;
13927;SDS011;7036;50.834;4.718;2023-02-17T14:45:58;1.88;;;1.30;;
13927;SDS011;7036;50.834;4.718;2023-02-17T14:48:26;1.52;;;1.10;;
13927;SDS011;7036;50.834;4.718;2023-02-17T14:50:54;3.17;;;0.93;;
13927;SDS011;7036;50.834;4.718;2023-02-17T14:53:31;3.58;;;0.90;;
13927;SDS011;7036;50.834;4.718;2023-02-17T14:56:07;3.33;;;1.17;;
13927;SDS011;7036;50.834;4.718;2023-02-17T14:58:33;2.33;;;1.00;;
13927;SDS011;7036;50.834;4.718;2023-02-17T15:01:00;2.97;;;1.03;;
13927;SDS011;7036;50.834;4.718;2023-02-17T15:03:28;3.83;;;1.20;;
13927;SDS011;7036;50.834;4.718;2023-02-17T15:05:55;5.43;;;1.30;;
13927;SDS011;7036;50.834;4.718;2023-02-17T15:08:27;1.65;;;1.02;;
13927;SDS011;7036;50.834;4.718;2023-02-17T15:10:51;3.10;;;1.30;;
13927;SDS011;7036;50.834;4.718;2023-02-17T15:13:20;3.80;;;1.10;;
13927;SDS011;7036;50.834;4.718;2023-02-17T15:15:46;2.42;;;1.38;;
13927;SDS011;7036;50.834;4.718;2023-02-17T15:18:14;2.67;;;1.20;;
13927;SDS011;7036;50.834;4.718;2023-02-17T15:20:42;5.20;;;1.23;;
13927;SDS011;7036;50.834;4.718;2023-02-17T15:23:13;1.58;;;1.13;;
13927;SDS011;7036;50.834;4.718;2023-02-17T15:25:39;2.47;;;1.33;;
13927;SDS011;7036;50.834;4.718;2023-02-17T15:28:10;5.05;;;1.38;;
13927;SDS011;7036;50.834;4.718;2023-02-17T15:30:35;2.35;;;1.52;;
13927;SDS011;7036;50.834;4.718;2023-02-17T15:33:04;1.58;;;1.20;;
13927;SDS011;7036;50.834;4.718;2023-02-17T15:35:31;3.20;;;1.20;;
13927;SDS011;7036;50.834;4.718;2023-02-17T15:37:59;1.70;;;1.10;;
13927;SDS011;7036;50.834;4.718;2023-02-17T15:40:26;1.75;;;1.15;;
13927;SDS011;7036;50.834;4.718;2023-02-17T15:42:58;2.25;;;1.63;;
13927;SDS011;7036;50.834;4.718;2023-02-17T15:45:27;7.97;;;1.53;;
13927;SDS011;7036;50.834;4.718;2023-02-17T15:48:01;4.15;;;1.40;;
13927;SDS011;7036;50.834;4.718;2023-02-17T15:50:28;1.77;;;1.13;;
13927;SDS011;7036;50.834;4.718;2023-02-17T15:52:55;5.20;;;1.60;;
13927;SDS011;7036;50.834;4.718;2023-02-17T15:55:23;5.05;;;1.23;;
13927;SDS011;7036;50.834;4.718;2023-02-17T15:57:51;4.43;;;1.98;;
13927;SDS011;7036;50.834;4.718;2023-02-17T16:00:20;3.10;;;1.67;;
13927;SDS011;7036;50.834;4.718;2023-02-17T16:02:45;2.77;;;1.47;;
13927;SDS011;7036;50.834;4.718;2023-02-17T16:05:13;2.27;;;1.20;;
13927;SDS011;7036;50.834;4.718;2023-02-17T16:07:40;2.13;;;1.17;;
13927;SDS011;7036;50.834;4.718;2023-02-17T16:10:09;4.88;;;1.75;;
13927;SDS011;7036;50.834;4.718;2023-02-17T16:12:35;2.07;;;1.30;;
13927;SDS011;7036;50.834;4.718;2023-02-17T16:15:03;3.40;;;1.40;;
13927;SDS011;7036;50.834;4.718;2023-02-17T16:17:31;2.33;;;1.30;;
13927;SDS011;7036;50.834;4.718;2023-02-17T16:19:58;1.20;;;1.10;;
13927;SDS011;7036;50.834;4.718;2023-02-17T16:22:26;1.73;;;1.02;;
13927;SDS011;7036;50.834;4.718;2023-02-17T16:24:54;2.50;;;1.30;;
13927;SDS011;7036;50.834;4.718;2023-02-17T16:27:22;2.05;;;1.27;;
13927;SDS011;7036;50.834;4.718;2023-02-17T16:29:49;2.17;;;1.20;;
13927;SDS011;7036;50.834;4.718;2023-02-17T16:32:17;2.35;;;1.52;;